Time,TemperatureF,DewpointF,PressureIn,WindDirection,WindDirectionDegrees,WindSpeedMPH,WindSpeedGustMPH,Humidity,HourlyPrecipIn,Conditions,Clouds,dailyrainin,SoftwareType,DateUTC
2015-01-30 00:14:00,41.7,35.0,30.03,WNW,284,10.0,18.0,77,0.00,,,0.00,weatherlink.com 1.10,2015-01-30 05:14:00,
2015-01-30 00:29:00,39.9,35.0,30.04,WNW,284,17.0,18.0,82,0.00,,,0.00,weatherlink.com 1.10,2015-01-30 05:29:00,
2015-01-30 00:44:00,38.1,34.0,30.05,NW,313,2.0,15.0,85,0.00,,,0.00,weatherlink.com 1.10,2015-01-30 05:44:00,
2015-01-30 00:59:00,37.2,34.0,30.03,West,269,5.0,14.0,87,0.01,,,0.01,weatherlink.com 1.10,2015-01-30 05:59:00,
2015-01-30 01:14:00,36.3,33.0,30.04,West,265,8.0,19.0,86,0.01,,,0.01,weatherlink.com 1.10,2015-01-30 06:14:00,
2015-01-30 01:29:00,35.0,31.0,30.05,West,265,11.0,20.0,86,0.01,,,0.01,weatherlink.com 1.10,2015-01-30 06:29:00,
2015-01-30 01:44:00,34.1,30.0,30.05,WNW,287,9.0,21.0,86,0.01,,,0.01,weatherlink.com 1.10,2015-01-30 06:44:00,
2015-01-30 01:59:00,33.3,30.0,30.06,NW,306,20.0,26.0,86,0.00,,,0.01,weatherlink.com 1.10,2015-01-30 06:59:00,
2015-01-30 02:14:00,32.8,29.0,30.05,West,281,7.0,22.0,85,0.00,,,0.01,weatherlink.com 1.10,2015-01-30 07:14:00,
2015-01-30 02:29:00,32.6,28.0,30.05,West,265,18.0,26.0,84,0.00,,,0.01,weatherlink.com 1.10,2015-01-30 07:29:00,
2015-01-30 02:44:00,32.1,28.0,30.05,West,280,12.0,28.0,84,0.00,,,0.01,weatherlink.com 1.10,2015-01-30 07:44:00,
2015-01-30 02:59:00,31.5,27.0,30.05,NW,304,13.0,25.0,83,0.00,,,0.01,weatherlink.com 1.10,2015-01-30 07:59:00,
2015-01-30 03:14:00,30.6,26.0,30.05,West,277,19.0,27.0,83,0.00,,,0.01,weatherlink.com 1.10,2015-01-30 08:14:00,
2015-01-30 03:30:00,30.1,26.0,30.05,NNW,339,9.0,26.0,84,0.00,,,0.01,weatherlink.com 1.10,2015-01-30 08:30:00,
2015-01-30 03:45:00,30.2,26.0,30.05,WNW,295,18.0,22.0,83,0.00,,,0.01,weatherlink.com 1.10,2015-01-30 08:45:00,
2015-01-30 04:00:00,30.2,25.0,30.06,NNW,343,13.0,18.0,82,0.00,,,0.01,weatherlink.com 1.10,2015-01-30 09:00:00,
2015-01-30 04:15:00,30.3,25.0,30.06,NNW,332,7.0,22.0,80,0.00,,,0.01,weatherlink.com 1.10,2015-01-30 09:15:00,
2015-01-30 04:30:00,30.3,24.0,30.06,WSW,252,9.0,28.0,77,0.00,,,0.01,weatherlink.com 1.10,2015-01-30 09:30:00,
2015-01-30 04:45:00,30.2,24.0,30.06,West,272,13.0,22.0,77,0.00,,,0.01,weatherlink.com 1.10,2015-01-30 09:45:00,
2015-01-30 05:00:00,29.9,23.0,30.07,NW,325,9.0,28.0,76,0.00,,,0.01,weatherlink.com 1.10,2015-01-30 10:00:00,
2015-01-30 05:15:00,29.6,23.0,30.07,NW,309,8.0,20.0,75,0.00,,,0.01,weatherlink.com 1.10,2015-01-30 10:15:00,
2015-01-30 05:30:00,29.2,22.0,30.07,WNW,300,13.0,32.0,75,0.00,,,0.01,weatherlink.com 1.10,2015-01-30 10:30:00,
2015-01-30 05:45:00,28.8,22.0,30.08,WNW,298,17.0,27.0,77,0.00,,,0.01,weatherlink.com 1.10,2015-01-30 10:45:00,
2015-01-30 06:00:00,28.2,22.0,30.09,WNW,285,6.0,29.0,78,0.00,,,0.01,weatherlink.com 1.10,2015-01-30 11:00:00,
2015-01-30 06:15:00,27.8,22.0,30.09,West,277,16.0,25.0,80,0.00,,,0.01,weatherlink.com 1.10,2015-01-30 11:15:00,
2015-01-30 06:30:00,27.3,22.0,30.10,NNE,16,13.0,22.0,81,0.00,,,0.01,weatherlink.com 1.10,2015-01-30 11:30:00,
2015-01-30 06:45:00,27.0,21.0,30.09,West,271,19.0,26.0,79,0.00,,,0.01,weatherlink.com 1.10,2015-01-30 11:45:00,
2015-01-30 07:00:00,26.7,22.0,30.10,WNW,296,16.0,39.0,81,0.00,,,0.01,weatherlink.com 1.10,2015-01-30 12:00:00,
2015-01-30 07:15:00,26.5,22.0,30.10,WNW,284,19.0,29.0,82,0.00,,,0.01,weatherlink.com 1.10,2015-01-30 12:15:00,
2015-01-30 07:30:00,26.3,22.0,30.11,NW,320,16.0,26.0,82,0.00,,,0.01,weatherlink.com 1.10,2015-01-30 12:30:00,
2015-01-30 07:45:00,25.9,21.0,30.13,NW,317,14.0,34.0,81,0.00,,,0.01,weatherlink.com 1.10,2015-01-30 12:45:00,
2015-01-30 08:00:00,25.5,21.0,30.14,NW,323,10.0,24.0,82,0.00,,,0.01,weatherlink.com 1.10,2015-01-30 13:00:00,
2015-01-30 08:15:00,25.4,20.0,30.14,WNW,290,11.0,36.0,81,0.00,,,0.01,weatherlink.com 1.10,2015-01-30 13:15:00,
2015-01-30 08:30:00,25.9,20.0,30.14,NW,312,17.0,28.0,77,0.00,,,0.01,weatherlink.com 1.10,2015-01-30 13:30:00,
2015-01-30 08:45:00,26.1,20.0,30.14,WNW,295,9.0,25.0,77,0.00,,,0.01,weatherlink.com 1.10,2015-01-30 13:45:00,
2015-01-30 09:00:00,26.2,20.0,30.15,NNW,336,8.0,24.0,77,0.00,,,0.01,weatherlink.com 1.10,2015-01-30 14:00:00,
2015-01-30 09:15:00,26.0,20.0,30.16,NW,309,17.0,26.0,77,0.00,,,0.01,weatherlink.com 1.10,2015-01-30 14:15:00,
2015-01-30 09:30:00,26.3,19.0,30.16,WNW,302,4.0,21.0,74,0.00,,,0.01,weatherlink.com 1.10,2015-01-30 14:30:00,
2015-01-30 09:45:00,26.7,19.0,30.16,NW,321,9.0,29.0,73,0.00,,,0.01,weatherlink.com 1.10,2015-01-30 14:45:00,
2015-01-30 10:00:00,26.5,20.0,30.17,NW,312,8.0,25.0,75,0.00,,,0.01,weatherlink.com 1.10,2015-01-30 15:00:00,
2015-01-30 10:16:00,26.6,20.0,30.17,NW,316,7.0,22.0,77,0.00,,,0.01,weatherlink.com 1.10,2015-01-30 15:16:00,
2015-01-30 10:31:00,26.2,21.0,30.18,West,274,16.0,25.0,79,0.00,,,0.01,weatherlink.com 1.10,2015-01-30 15:31:00,
2015-01-30 10:46:00,26.5,20.0,30.18,WNW,290,8.0,29.0,76,0.00,,,0.01,weatherlink.com 1.10,2015-01-30 15:46:00,
2015-01-30 11:01:00,25.5,20.0,30.19,NW,304,20.0,32.0,80,0.00,,,0.01,weatherlink.com 1.10,2015-01-30 16:01:00,
2015-01-30 11:16:00,26.8,18.0,30.19,WNW,284,19.0,27.0,70,0.00,,,0.01,weatherlink.com 1.10,2015-01-30 16:16:00,
2015-01-30 11:31:00,27.6,17.0,30.19,WNW,299,12.0,30.0,65,0.00,,,0.01,weatherlink.com 1.10,2015-01-30 16:31:00,
2015-01-30 11:46:00,28.3,18.0,30.19,West,275,3.0,25.0,65,0.00,,,0.01,weatherlink.com 1.10,2015-01-30 16:46:00,
2015-01-30 12:01:00,28.6,18.0,30.18,WNW,298,13.0,19.0,66,0.00,,,0.01,weatherlink.com 1.10,2015-01-30 17:01:00,
2015-01-30 12:16:00,27.8,20.0,30.19,West,271,16.0,26.0,71,0.00,,,0.01,weatherlink.com 1.10,2015-01-30 17:16:00,
2015-01-30 12:31:00,27.3,18.0,30.19,NW,310,9.0,31.0,68,0.00,,,0.01,weatherlink.com 1.10,2015-01-30 17:31:00,
2015-01-30 12:46:00,28.3,17.0,30.19,WNW,282,19.0,29.0,63,0.00,,,0.01,weatherlink.com 1.10,2015-01-30 17:46:00,
2015-01-30 13:01:00,29.0,17.0,30.18,NW,307,17.0,36.0,61,0.00,,,0.01,weatherlink.com 1.10,2015-01-30 18:01:00,
2015-01-30 13:16:00,28.7,17.0,30.18,NW,310,17.0,34.0,62,0.00,,,0.01,weatherlink.com 1.10,2015-01-30 18:16:00,
2015-01-30 13:31:00,28.8,18.0,30.17,West,259,14.0,34.0,64,0.00,,,0.01,weatherlink.com 1.10,2015-01-30 18:31:00,
2015-01-30 13:46:00,29.0,18.0,30.17,West,262,14.0,41.0,63,0.00,,,0.01,weatherlink.com 1.10,2015-01-30 18:46:00,
2015-01-30 14:01:00,28.7,17.0,30.18,NW,310,27.0,32.0,63,0.00,,,0.01,weatherlink.com 1.10,2015-01-30 19:01:00,
2015-01-30 14:16:00,28.8,18.0,30.19,West,279,14.0,35.0,65,0.00,,,0.01,weatherlink.com 1.10,2015-01-30 19:16:00,
2015-01-30 14:31:00,27.9,19.0,30.18,WNW,288,11.0,30.0,68,0.00,,,0.01,weatherlink.com 1.10,2015-01-30 19:31:00,
2015-01-30 14:46:00,27.6,19.0,30.19,North,360,6.0,39.0,69,0.00,,,0.01,weatherlink.com 1.10,2015-01-30 19:46:00,
2015-01-30 15:01:00,27.7,18.0,30.20,WNW,300,9.0,33.0,66,0.00,,,0.01,weatherlink.com 1.10,2015-01-30 20:01:00,
2015-01-30 15:16:00,28.3,17.0,30.20,West,279,16.0,32.0,63,0.00,,,0.01,weatherlink.com 1.10,2015-01-30 20:16:00,
2015-01-30 15:31:00,27.8,15.0,30.22,WNW,291,18.0,34.0,59,0.00,,,0.01,weatherlink.com 1.10,2015-01-30 20:31:00,
2015-01-30 15:46:00,28.1,16.0,30.21,WNW,298,7.0,27.0,60,0.00,,,0.01,weatherlink.com 1.10,2015-01-30 20:46:00,
2015-01-30 16:01:00,28.2,15.0,30.21,WNW,286,16.0,25.0,58,0.00,,,0.01,weatherlink.com 1.10,2015-01-30 21:01:00,
2015-01-30 16:16:00,28.1,15.0,30.22,NW,306,17.0,26.0,58,0.00,,,0.01,weatherlink.com 1.10,2015-01-30 21:16:00,
2015-01-30 16:31:00,28.0,14.0,30.21,WNW,288,13.0,30.0,56,0.00,,,0.01,weatherlink.com 1.10,2015-01-30 21:31:00,
2015-01-30 16:46:00,27.9,13.0,30.22,North,350,15.0,24.0,54,0.00,,,0.01,weatherlink.com 1.10,2015-01-30 21:46:00,
2015-01-30 17:01:00,27.4,12.0,30.22,West,272,18.0,28.0,53,0.00,,,0.01,weatherlink.com 1.10,2015-01-30 22:01:00,
2015-01-30 17:16:00,26.9,13.0,30.22,West,277,19.0,31.0,55,0.00,,,0.01,weatherlink.com 1.10,2015-01-30 22:16:00,
2015-01-30 17:31:00,26.5,13.0,30.23,NW,307,13.0,28.0,57,0.00,,,0.01,weatherlink.com 1.10,2015-01-30 22:31:00,
2015-01-30 17:46:00,25.8,12.0,30.24,WNW,296,14.0,27.0,57,0.00,,,0.01,weatherlink.com 1.10,2015-01-30 22:46:00,